Time,TemperatureF,DewpointF,PressureIn,WindDirection,WindDirectionDegrees,WindSpeedMPH,WindSpeedGustMPH,Humidity,HourlyPrecipIn,Conditions,Clouds,dailyrainin,SoftwareType,DateUTC
2013-09-16 00:00:00,58.1,57.8,30.18,WNW,297,0.0,1.0,99,0.00,,OVC055,0.00,VWS V14.01,2013-09-16 04:00:00,
2013-09-16 00:01:00,58.0,57.7,30.18,WNW,297,0.0,0.0,99,0.00,,OVC055,0.00,VWS V14.01,2013-09-16 04:01:00,
2013-09-16 00:06:00,57.9,57.6,30.18,WNW,297,0.0,0.0,99,0.00,,OVC055,0.00,VWS V14.01,2013-09-16 04:06:00,
2013-09-16 00:11:00,57.9,57.9,30.18,WNW,297,0.0,0.0,100,0.00,,OVC055,0.00,VWS V14.01,2013-09-16 04:11:00,
2013-09-16 00:16:00,58.0,58.0,30.18,WNW,297,0.0,0.0,100,0.00,,OVC055,0.00,VWS V14.01,2013-09-16 04:16:00,
2013-09-16 00:21:00,58.2,58.2,30.18,WNW,297,0.0,0.0,100,0.00,,OVC055,0.00,VWS V14.01,2013-09-16 04:21:00,
2013-09-16 00:26:00,58.2,58.2,30.18,WNW,297,0.0,0.0,100,0.00,,OVC055,0.00,VWS V14.01,2013-09-16 04:26:00,
2013-09-16 00:30:00,58.2,58.2,30.18,WNW,297,0.0,0.0,100,0.00,,OVC055,0.00,VWS V14.01,2013-09-16 04:30:00,
2013-09-16 00:31:00,58.2,58.2,30.17,WNW,297,0.0,0.0,100,0.00,,OVC055,0.00,VWS V14.01,2013-09-16 04:31:00,
2013-09-16 00:36:00,58.2,58.2,30.17,WNW,297,0.0,0.0,100,0.00,,OVC055,0.00,VWS V14.01,2013-09-16 04:36:00,
2013-09-16 00:41:00,58.2,58.2,30.17,WNW,297,0.0,0.0,100,0.00,,OVC055,0.00,VWS V14.01,2013-09-16 04:41:00,
2013-09-16 00:46:00,58.3,58.3,30.17,WNW,297,0.0,0.0,100,0.00,,OVC055,0.00,VWS V14.01,2013-09-16 04:46:00,
2013-09-16 00:51:00,58.3,58.3,30.17,WNW,297,0.0,0.0,100,0.00,,OVC055,0.00,VWS V14.01,2013-09-16 04:51:00,
2013-09-16 00:56:00,58.4,58.4,30.17,WNW,297,0.0,0.0,100,0.00,,OVC055,0.00,VWS V14.01,2013-09-16 04:56:00,
2013-09-16 01:00:00,58.4,58.4,30.17,WNW,297,0.0,0.0,100,0.00,,OVC055,0.00,VWS V14.01,2013-09-16 05:00:00,
2013-09-16 01:01:00,58.4,58.4,30.17,WNW,297,0.0,0.0,100,0.00,,OVC055,0.00,VWS V14.01,2013-09-16 05:01:00,
2013-09-16 01:06:00,58.4,58.4,30.17,WNW,297,0.0,0.0,100,0.00,,OVC055,0.00,VWS V14.01,2013-09-16 05:06:00,
2013-09-16 01:11:00,58.3,58.3,30.17,WNW,297,0.0,0.0,100,0.00,,OVC055,0.00,VWS V14.01,2013-09-16 05:11:00,
2013-09-16 01:16:00,58.3,58.3,30.17,WNW,298,0.0,0.0,100,0.00,,OVC055,0.00,VWS V14.01,2013-09-16 05:16:00,
2013-09-16 01:21:00,58.2,58.2,30.17,WNW,297,0.0,0.0,100,0.00,,OVC055,0.00,VWS V14.01,2013-09-16 05:21:00,
2013-09-16 01:26:00,58.2,58.2,30.17,WNW,297,0.0,0.0,100,0.00,,OVC055,0.00,VWS V14.01,2013-09-16 05:26:00,
2013-09-16 01:30:00,58.1,58.1,30.17,WNW,297,0.0,0.0,100,0.00,,OVC055,0.00,VWS V14.01,2013-09-16 05:30:00,
2013-09-16 01:31:00,58.1,58.1,30.17,WNW,297,0.0,0.0,100,0.00,,OVC055,0.00,VWS V14.01,2013-09-16 05:31:00,
2013-09-16 01:36:00,58.2,58.2,30.17,WNW,297,0.0,0.0,100,0.00,,OVC055,0.00,VWS V14.01,2013-09-16 05:36:00,
2013-09-16 01:40:00,58.2,58.2,30.17,WNW,297,0.0,0.0,100,0.00,,OVC055,0.00,VWS V14.01,2013-09-16 05:40:00,
2013-09-16 01:45:00,58.2,58.2,30.17,WNW,297,0.0,0.0,100,0.00,,OVC055,0.00,VWS V14.01,2013-09-16 05:45:00,
2013-09-16 01:50:00,58.2,58.2,30.17,WNW,297,0.0,0.0,100,0.00,,OVC055,0.00,VWS V14.01,2013-09-16 05:50:00,
2013-09-16 01:55:00,58.2,58.2,30.17,WNW,297,0.0,0.0,100,0.00,,OVC055,0.00,VWS V14.01,2013-09-16 05:55:00,
2013-09-16 02:00:00,58.2,58.2,30.17,WNW,297,0.0,0.0,100,0.00,,OVC055,0.00,VWS V14.01,2013-09-16 06:00:00,
2013-09-16 02:05:00,58.3,58.3,30.17,WNW,297,0.0,0.0,100,0.00,,OVC055,0.00,VWS V14.01,2013-09-16 06:05:00,
2013-09-16 02:10:00,58.3,58.3,30.16,WNW,297,0.0,0.0,100,0.00,,OVC055,0.00,VWS V14.01,2013-09-16 06:10:00,
2013-09-16 02:15:00,58.2,58.2,30.16,WNW,297,0.0,0.0,100,0.00,,OVC055,0.00,VWS V14.01,2013-09-16 06:15:00,
2013-09-16 02:20:00,58.2,58.2,30.17,WNW,297,0.0,0.0,100,0.00,,OVC055,0.00,VWS V14.01,2013-09-16 06:20:00,
2013-09-16 02:25:00,58.1,58.1,30.17,WNW,297,0.0,0.0,100,0.00,,OVC055,0.00,VWS V14.01,2013-09-16 06:25:00,
2013-09-16 02:30:00,58.0,58.0,30.17,WNW,297,0.0,0.0,100,0.00,,OVC055,0.00,VWS V14.01,2013-09-16 06:30:00,
2013-09-16 02:35:00,58.0,58.0,30.17,WNW,297,0.0,0.0,100,0.00,,OVC055,0.00,VWS V14.01,2013-09-16 06:35:00,
2013-09-16 02:40:00,58.0,58.0,30.17,WNW,297,0.0,0.0,100,0.00,,OVC055,0.00,VWS V14.01,2013-09-16 06:40:00,
2013-09-16 02:45:00,58.0,58.0,30.16,WNW,297,0.0,0.0,100,0.00,,OVC055,0.00,VWS V14.01,2013-09-16 06:45:00,
2013-09-16 02:50:00,58.0,58.0,30.16,WNW,297,0.0,0.0,100,0.00,,OVC055,0.00,VWS V14.01,2013-09-16 06:50:00,
2013-09-16 02:55:00,58.0,58.0,30.16,WNW,297,1.0,1.0,100,0.00,,OVC055,0.00,VWS V14.01,2013-09-16 06:55:00,
2013-09-16 03:00:00,58.0,58.0,30.16,WNW,298,0.0,2.0,100,0.00,,OVC055,0.00,VWS V14.01,2013-09-16 07:00:00,
2013-09-16 03:05:00,57.9,57.9,30.16,WNW,298,1.0,2.0,100,0.00,,OVC055,0.00,VWS V14.01,2013-09-16 07:05:00,
2013-09-16 03:10:00,57.7,57.7,30.16,WNW,298,0.0,2.0,100,0.00,,OVC055,0.00,VWS V14.01,2013-09-16 07:10:00,
2013-09-16 03:15:00,57.6,57.6,30.16,WNW,302,2.0,2.0,100,0.00,,OVC055,0.00,VWS V14.01,2013-09-16 07:15:00,
2013-09-16 03:20:00,57.5,57.5,30.16,WNW,302,0.0,2.0,100,0.00,,OVC055,0.00,VWS V14.01,2013-09-16 07:20:00,
2013-09-16 03:25:00,57.4,57.4,30.16,WNW,302,0.0,2.0,100,0.00,,OVC055,0.00,VWS V14.01,2013-09-16 07:25:00,
2013-09-16 03:30:00,57.4,57.4,30.16,WNW,302,0.0,0.0,100,0.00,,OVC055,0.00,VWS V14.01,2013-09-16 07:30:00,
2013-09-16 03:35:00,57.3,57.3,30.16,WNW,302,0.0,0.0,100,0.00,,OVC055,0.00,VWS V14.01,2013-09-16 07:35:00,
2013-09-16 03:40:00,57.3,57.3,30.16,WNW,302,1.0,2.0,100,0.00,,OVC055,0.00,VWS V14.01,2013-09-16 07:40:00,
2013-09-16 03:45:00,57.4,57.4,30.16,WNW,302,2.0,2.0,100,0.00,,OVC055,0.00,VWS V14.01,2013-09-16 07:45:00,
2013-09-16 03:50:00,57.3,57.3,30.16,NNW,335,0.0,4.0,100,0.00,,OVC055,0.00,VWS V14.01,2013-09-16 07:50:00,
2013-09-16 03:55:00,57.2,57.2,30.16,NNW,335,1.0,4.0,100,0.00,,OVC055,0.00,VWS V14.01,2013-09-16 07:55:00,
2013-09-16 04:00:00,57.2,57.2,30.16,NNW,335,0.0,0.0,100,0.00,,OVC055,0.00,VWS V14.01,2013-09-16 08:00:00,
2013-09-16 04:05:00,57.1,57.1,30.15,NNW,335,0.0,1.0,100,0.00,,OVC055,0.00,VWS V14.01,2013-09-16 08:05:00,
2013-09-16 04:10:00,57.1,57.1,30.15,NNW,335,0.0,1.0,100,0.00,,OVC055,0.00,VWS V14.01,2013-09-16 08:10:00,
2013-09-16 04:15:00,57.1,57.1,30.15,NNW,335,0.0,1.0,100,0.00,,OVC055,0.00,VWS V14.01,2013-09-16 08:15:00,
2013-09-16 04:20:00,57.1,57.1,30.15,NNW,335,0.0,1.0,100,0.00,,OVC055,0.00,VWS V14.01,2013-09-16 08:20:00,
2013-09-16 04:25:00,57.1,57.1,30.15,NNW,335,0.0,1.0,100,0.00,,OVC055,0.00,VWS V14.01,2013-09-16 08:25:00,
2013-09-16 04:30:00,57.1,57.1,30.15,NNW,335,0.0,0.0,100,0.00,,OVC055,0.00,VWS V14.01,2013-09-16 08:30:00,
2013-09-16 04:35:00,57.1,57.1,30.16,NNW,335,0.0,1.0,100,0.00,,OVC055,0.00,VWS V14.01,2013-09-16 08:35:00,
2013-09-16 04:40:00,57.0,57.0,30.16,NNW,335,0.0,1.0,100,0.00,,OVC055,0.00,VWS V14.01,2013-09-16 08:40:00,
2013-09-16 04:45:00,57.0,57.0,30.16,NNW,335,0.0,1.0,100,0.00,,OVC055,0.00,VWS V14.01,2013-09-16 08:45:00,
2013-09-16 04:50:00,57.0,57.0,30.15,NNW,335,0.0,1.0,100,0.00,,OVC055,0.00,VWS V14.01,2013-09-16 08:50:00,
2013-09-16 04:55:00,56.9,56.9,30.16,NNW,335,1.0,1.0,100,0.00,,OVC055,0.00,VWS V14.01,2013-09-16 08:55:00,
2013-09-16 05:00:00,56.9,56.9,30.16,NNW,335,0.0,0.0,100,0.00,,OVC055,0.00,VWS V14.01,2013-09-16 09:00:00,
2013-09-16 05:05:00,56.9,56.9,30.16,NNW,335,0.0,0.0,100,0.00,,OVC055,0.00,VWS V14.01,2013-09-16 09:05:00,
2013-09-16 05:10:00,56.8,56.8,30.16,NNW,335,0.0,1.0,100,0.00,,OVC055,0.00,VWS V14.01,2013-09-16 09:10:00,
2013-09-16 05:15:00,56.8,56.8,30.16,NNW,335,0.0,1.0,100,0.00,,OVC055,0.00,VWS V14.01,2013-09-16 09:15:00,
2013-09-16 05:20:00,56.8,56.8,30.16,NNW,335,0.0,1.0,100,0.00,,OVC055,0.00,VWS V14.01,2013-09-16 09:20:00,
2013-09-16 05:25:00,56.8,56.8,30.16,NNW,335,0.0,1.0,100,0.00,,OVC055,0.00,VWS V14.01,2013-09-16 09:25:00,
2013-09-16 05:30:00,56.7,56.7,30.15,NNW,335,0.0,0.0,100,0.00,,OVC055,0.00,VWS V14.01,2013-09-16 09:30:00,
2013-09-16 05:35:00,56.6,56.6,30.15,NNW,335,0.0,0.0,100,0.00,,OVC055,0.00,VWS V14.01,2013-09-16 09:35:00,
2013-09-16 05:40:00,56.6,56.6,30.16,NNW,335,0.0,1.0,100,0.00,,OVC055,0.00,VWS V14.01,2013-09-16 09:40:00,
2013-09-16 05:45:00,56.7,56.7,30.15,NNW,335,0.0,1.0,100,0.00,,OVC055,0.00,VWS V14.01,2013-09-16 09:45:00,
2013-09-16 05:50:00,56.7,56.7,30.16,NNW,335,0.0,1.0,100,0.00,,OVC055,0.00,VWS V14.01,2013-09-16 09:50:00,
2013-09-16 05:55:00,56.7,56.7,30.16,NNW,335,0.0,1.0,100,0.00,,OVC055,0.00,VWS V14.01,2013-09-16 09:55:00,
2013-09-16 06:00:00,56.8,56.8,30.16,NNW,335,0.0,0.0,100,0.00,,OVC055,0.00,VWS V14.01,2013-09-16 10:00:00,
2013-09-16 06:05:00,56.9,56.9,30.16,NNW,335,0.0,0.0,100,0.00,,OVC055,0.00,VWS V14.01,2013-09-16 10:05:00,
2013-09-16 06:10:00,56.8,56.8,30.16,NNW,335,0.0,0.0,100,0.00,,OVC055,0.00,VWS V14.01,2013-09-16 10:10:00,
2013-09-16 06:15:00,56.6,56.6,30.16,NNW,335,0.0,0.0,100,0.00,,OVC055,0.00,VWS V14.01,2013-09-16 10:15:00,
2013-09-16 06:20:00,56.6,56.6,30.16,NNW,335,0.0,0.0,100,0.00,,OVC055,0.00,VWS V14.01,2013-09-16 10:20:00,
2013-09-16 06:25:00,56.5,56.5,30.16,NNW,335,0.0,1.0,100,0.00,,OVC055,0.00,VWS V14.01,2013-09-16 10:25:00,
2013-09-16 06:30:00,56.5,56.5,30.16,NNW,335,0.0,0.0,100,0.00,,OVC055,0.00,VWS V14.01,2013-09-16 10:30:00,
2013-09-16 06:35:00,56.5,56.5,30.16,NNW,335,0.0,0.0,100,0.00,,OVC055,0.00,VWS V14.01,2013-09-16 10:35:00,
2013-09-16 06:40:00,56.5,56.5,30.16,NNW,335,0.0,0.0,100,0.00,,OVC055,0.00,VWS V14.01,2013-09-16 10:40:00,
2013-09-16 06:45:00,56.5,56.5,30.16,NNW,335,0.0,0.0,100,0.00,,OVC055,0.00,VWS V14.01,2013-09-16 10:45:00,
2013-09-16 06:50:00,56.5,56.5,30.16,NNW,335,1.0,1.0,100,0.00,,OVC055,0.00,VWS V14.01,2013-09-16 10:50:00,
2013-09-16 06:55:00,56.5,56.5,30.16,NNW,335,1.0,2.0,100,0.00,,OVC055,0.00,VWS V14.01,2013-09-16 10:55:00,
2013-09-16 07:00:00,56.4,56.4,30.17,NNW,335,0.0,1.0,100,0.00,,OVC055,0.00,VWS V14.01,2013-09-16 11:00:00,
2013-09-16 07:05:00,56.3,56.3,30.17,NNW,335,0.0,2.0,100,0.00,,OVC055,0.00,VWS V14.01,2013-09-16 11:05:00,
2013-09-16 07:10:00,56.2,56.2,30.17,NNW,335,0.0,2.0,100,0.00,,OVC055,0.00,VWS V14.01,2013-09-16 11:10:00,
2013-09-16 07:15:00,56.3,56.3,30.17,NNW,335,0.0,2.0,100,0.00,,OVC055,0.00,VWS V14.01,2013-09-16 11:15:00,
2013-09-16 07:20:00,56.3,56.3,30.17,NNW,335,0.0,2.0,100,0.00,,OVC055,0.00,VWS V14.01,2013-09-16 11:20:00,
2013-09-16 07:25:00,56.4,56.4,30.17,NNW,335,0.0,2.0,100,0.00,,OVC055,0.00,VWS V14.01,2013-09-16 11:25:00,
2013-09-16 07:30:00,56.3,56.3,30.17,NNW,335,0.0,0.0,100,0.00,,OVC055,0.00,VWS V14.01,2013-09-16 11:30:00,
2013-09-16 07:35:00,56.3,56.3,30.17,NNW,335,0.0,0.0,100,0.00,,OVC055,0.00,VWS V14.01,2013-09-16 11:35:00,
2013-09-16 07:40:00,56.5,56.5,30.17,NNW,335,1.0,1.0,100,0.00,,OVC055,0.00,VWS V14.01,2013-09-16 11:40:00,
2013-09-16 07:45:00,56.6,56.6,30.17,NNW,335,0.0,1.0,100,0.00,,OVC055,0.00,VWS V14.01,2013-09-16 11:45:00,
2013-09-16 07:50:00,56.6,56.6,30.17,NNW,335,0.0,1.0,100,0.00,,OVC055,0.00,VWS V14.01,2013-09-16 11:50:00,
2013-09-16 07:55:00,56.7,56.7,30.17,NNW,335,1.0,2.0,100,0.00,,OVC055,0.00,VWS V14.01,2013-09-16 11:55:00,
2013-09-16 08:00:00,56.8,56.8,30.17,NNW,335,1.0,2.0,100,0.00,,OVC055,0.00,VWS V14.01,2013-09-16 12:00:00,
2013-09-16 08:05:00,56.8,56.8,30.17,NNW,335,0.0,2.0,100,0.00,,OVC055,0.00,VWS V14.01,2013-09-16 12:05:00,
2013-09-16 08:10:00,56.8,56.8,30.18,NNW,335,0.0,2.0,100,0.00,,OVC055,0.00,VWS V14.01,2013-09-16 12:10:00,
2013-09-16 08:15:00,56.8,56.8,30.17,NNW,335,1.0,2.0,100,0.00,,OVC055,0.00,VWS V14.01,2013-09-16 12:15:00,
2013-09-16 08:20:00,56.9,56.9,30.17,NNW,335,1.0,2.0,100,0.00,,OVC055,0.00,VWS V14.01,2013-09-16 12:20:00,
2013-09-16 08:25:00,56.9,56.9,30.17,NNW,335,0.0,2.0,100,0.00,,OVC055,0.00,VWS V14.01,2013-09-16 12:25:00,
2013-09-16 08:30:00,56.9,56.9,30.17,NNW,335,0.0,1.0,100,0.00,,OVC055,0.00,VWS V14.01,2013-09-16 12:30:00,
2013-09-16 08:34:00,57.0,57.0,30.17,NNW,335,1.0,1.0,100,0.00,,OVC055,0.00,VWS V14.01,2013-09-16 12:34:00,
2013-09-16 08:39:00,57.0,57.0,30.17,NNW,335,0.0,2.0,100,0.00,,OVC055,0.00,VWS V14.01,2013-09-16 12:39:00,
2013-09-16 08:44:00,57.1,57.1,30.17,NNW,335,0.0,2.0,100,0.00,,OVC055,0.00,VWS V14.01,2013-09-16 12:44:00,
2013-09-16 08:49:00,57.2,57.2,30.17,NNW,335,1.0,2.0,100,0.00,,OVC055,0.00,VWS V14.01,2013-09-16 12:49:00,
2013-09-16 08:54:00,57.3,57.3,30.17,NNW,335,0.0,2.0,100,0.00,,OVC055,0.00,VWS V14.01,2013-09-16 12:54:00,
2013-09-16 08:59:00,57.4,57.4,30.17,NNW,335,0.0,1.0,100,0.00,,OVC055,0.00,VWS V14.01,2013-09-16 12:59:00,
2013-09-16 09:00:00,57.4,57.4,30.17,NNW,335,0.0,2.0,100,0.00,,OVC055,0.00,VWS V14.01,2013-09-16 13:00:00,
2013-09-16 09:04:00,57.6,57.6,30.18,NNW,335,1.0,2.0,100,0.00,,OVC055,0.00,VWS V14.01,2013-09-16 13:04:00,
2013-09-16 09:09:00,57.6,57.6,30.18,NNW,335,1.0,2.0,100,0.00,,OVC055,0.00,VWS V14.01,2013-09-16 13:09:00,
2013-09-16 09:14:00,57.5,57.5,30.18,NNW,335,0.0,2.0,100,0.00,,OVC055,0.00,VWS V14.01,2013-09-16 13:14:00,
2013-09-16 09:19:00,57.5,57.5,30.18,NNW,335,0.0,2.0,100,0.00,,OVC055,0.00,VWS V14.01,2013-09-16 13:19:00,
2013-09-16 09:24:00,57.6,57.6,30.18,NNW,335,0.0,2.0,100,0.00,,OVC055,0.00,VWS V14.01,2013-09-16 13:24:00,
2013-09-16 09:29:00,57.6,57.6,30.18,NNW,335,0.0,1.0,100,0.00,,OVC055,0.00,VWS V14.01,2013-09-16 13:29:00,
2013-09-16 09:30:00,57.6,57.6,30.18,NNW,335,0.0,2.0,100,0.00,,OVC055,0.00,VWS V14.01,2013-09-16 13:30:00,
2013-09-16 09:34:00,57.8,57.8,30.18,NNW,335,0.0,1.0,100,0.00,,OVC055,0.00,VWS V14.01,2013-09-16 13:34:00,
2013-09-16 09:39:00,58.0,58.0,30.18,NNW,335,0.0,1.0,100,0.00,,OVC055,0.00,VWS V14.01,2013-09-16 13:39:00,
2013-09-16 09:44:00,58.2,58.2,30.18,NNW,335,0.0,1.0,100,0.00,,OVC055,0.00,VWS V14.01,2013-09-16 13:44:00,
2013-09-16 09:49:00,58.2,58.2,30.18,NNW,335,0.0,2.0,100,0.00,,OVC055,0.00,VWS V14.01,2013-09-16 13:49:00,
2013-09-16 09:54:00,58.4,58.4,30.18,NNW,335,0.0,2.0,100,0.00,,OVC055,0.00,VWS V14.01,2013-09-16 13:54:00,
2013-09-16 09:59:00,58.8,58.8,30.18,NNW,335,0.0,2.0,100,0.00,,OVC055,0.00,VWS V14.01,2013-09-16 13:59:00,
2013-09-16 10:00:00,58.6,58.6,30.18,NNW,335,0.0,2.0,100,0.00,,OVC055,0.00,VWS V14.01,2013-09-16 14:00:00,
2013-09-16 10:04:00,58.8,58.8,30.18,NNW,335,1.0,2.0,100,0.00,,OVC055,0.00,VWS V14.01,2013-09-16 14:04:00,
2013-09-16 10:09:00,58.9,58.9,30.18,NNW,335,1.0,2.0,100,0.00,,OVC055,0.00,VWS V14.01,2013-09-16 14:09:00,
2013-09-16 10:14:00,59.2,59.2,30.18,NNW,335,0.0,2.0,100,0.00,,OVC055,0.00,VWS V14.01,2013-09-16 14:14:00,
2013-09-16 10:19:00,59.4,59.4,30.18,NNW,335,0.0,2.0,100,0.00,,OVC055,0.00,VWS V14.01,2013-09-16 14:19:00,
2013-09-16 10:24:00,59.6,59.6,30.18,NNW,335,1.0,2.0,100,0.00,,OVC055,0.00,VWS V14.01,2013-09-16 14:24:00,
2013-09-16 10:29:00,60.1,60.1,30.18,NNW,344,0.0,1.0,100,0.00,,OVC055,0.00,VWS V14.01,2013-09-16 14:29:00,
2013-09-16 10:30:00,60.0,60.0,30.18,NNW,335,0.0,2.0,100,0.00,,OVC055,0.00,VWS V14.01,2013-09-16 14:30:00,
2013-09-16 10:34:00,60.4,60.4,30.18,NNW,344,2.0,2.0,100,0.00,,OVC055,0.00,VWS V14.01,2013-09-16 14:34:00,
2013-09-16 10:39:00,60.6,60.6,30.17,NNW,344,2.0,3.0,100,0.00,,OVC055,0.00,VWS V14.01,2013-09-16 14:39:00,
2013-09-16 10:44:00,60.9,60.9,30.18,NNW,344,1.0,3.0,100,0.00,,OVC055,0.00,VWS V14.01,2013-09-16 14:44:00,
2013-09-16 10:49:00,61.3,61.3,30.18,NNW,344,1.0,3.0,100,0.00,,OVC055,0.00,VWS V14.01,2013-09-16 14:49:00,
2013-09-16 10:54:00,61.8,61.8,30.17,NNW,344,0.0,3.0,100,0.00,,OVC055,0.00,VWS V14.01,2013-09-16 14:54:00,
2013-09-16 10:59:00,62.3,62.3,30.17,NNW,344,1.0,1.0,100,0.00,,OVC055,0.00,VWS V14.01,2013-09-16 14:59:00,
2013-09-16 11:00:00,62.1,62.1,30.17,NNW,344,0.0,3.0,100,0.00,,OVC055,0.00,VWS V14.01,2013-09-16 15:00:00,
2013-09-16 11:04:00,62.4,62.4,30.17,NNW,344,0.0,2.0,100,0.00,,OVC055,0.00,VWS V14.01,2013-09-16 15:04:00,
2013-09-16 11:09:00,62.7,62.7,30.17,NNW,344,0.0,2.0,100,0.00,,OVC055,0.00,VWS V14.01,2013-09-16 15:09:00,
2013-09-16 11:14:00,63.1,63.1,30.17,NNW,344,0.0,2.0,100,0.00,,OVC055,0.00,VWS V14.01,2013-09-16 15:14:00,
2013-09-16 11:19:00,63.5,63.5,30.17,NNW,344,0.0,2.0,100,0.00,,OVC055,0.00,VWS V14.01,2013-09-16 15:19:00,
2013-09-16 11:24:00,64.2,63.9,30.17,NNW,344,3.0,3.0,99,0.00,,OVC055,0.00,VWS V14.01,2013-09-16 15:24:00,
2013-09-16 11:29:00,64.7,63.8,30.17,NNW,344,0.0,1.0,97,0.00,,OVC055,0.00,VWS V14.01,2013-09-16 15:29:00,
2013-09-16 11:30:00,64.6,63.7,30.17,NNW,344,1.0,3.0,97,0.00,,OVC055,0.00,VWS V14.01,2013-09-16 15:30:00,
2013-09-16 11:34:00,65.6,64.7,30.17,NNW,344,0.0,1.0,97,0.00,,OVC055,0.00,VWS V14.01,2013-09-16 15:34:00,
2013-09-16 11:39:00,66.4,64.9,30.17,NNW,344,2.0,2.0,95,0.00,,OVC055,0.00,VWS V14.01,2013-09-16 15:39:00,
2013-09-16 11:44:00,67.6,65.5,30.17,NNW,344,0.0,2.0,93,0.00,,OVC055,0.00,VWS V14.01,2013-09-16 15:44:00,
2013-09-16 11:49:00,68.3,64.9,30.16,NNW,344,1.0,2.0,89,0.00,,OVC055,0.00,VWS V14.01,2013-09-16 15:49:00,
2013-09-16 11:54:00,69.4,66.3,30.16,NNW,344,2.0,2.0,90,0.00,,OVC055,0.00,VWS V14.01,2013-09-16 15:54:00,
2013-09-16 11:59:00,70.9,66.8,30.16,NNW,344,0.0,3.0,87,0.00,,OVC055,0.00,VWS V14.01,2013-09-16 15:59:00,
2013-09-16 12:00:00,70.6,67.2,30.16,NNW,344,0.0,2.0,89,0.00,,OVC055,0.00,VWS V14.01,2013-09-16 16:00:00,
2013-09-16 12:04:00,72.0,66.2,30.16,NNW,345,1.0,3.0,82,0.00,,OVC055,0.00,VWS V14.01,2013-09-16 16:04:00,
2013-09-16 12:09:00,72.5,66.7,30.16,NNW,345,3.0,3.0,82,0.00,,OVC055,0.00,VWS V14.01,2013-09-16 16:09:00,
2013-09-16 12:14:00,73.2,65.9,30.16,NNW,344,2.0,3.0,78,0.00,,OVC055,0.00,VWS V14.01,2013-09-16 16:14:00,
2013-09-16 12:19:00,73.7,65.7,30.16,NNW,344,0.0,3.0,76,0.00,,OVC055,0.00,VWS V14.01,2013-09-16 16:19:00,
2013-09-16 12:24:00,74.4,67.5,30.16,NNW,344,0.0,3.0,79,0.00,,OVC055,0.00,VWS V14.01,2013-09-16 16:24:00,
2013-09-16 12:29:00,75.1,66.6,30.15,NNW,343,1.0,2.0,75,0.00,,OVC055,0.00,VWS V14.01,2013-09-16 16:29:00,
2013-09-16 12:30:00,75.0,65.4,30.15,NNW,343,1.0,3.0,72,0.00,,OVC055,0.00,VWS V14.01,2013-09-16 16:30:00,
2013-09-16 12:34:00,75.9,65.0,30.15,NNW,343,1.0,2.0,69,0.00,,OVC055,0.00,VWS V14.01,2013-09-16 16:34:00,
2013-09-16 12:39:00,76.7,67.8,30.15,ENE,67,1.0,3.0,74,0.00,,OVC055,0.00,VWS V14.01,2013-09-16 16:39:00,
2013-09-16 12:44:00,76.2,66.5,30.15,ENE,66,0.0,3.0,72,0.00,,OVC055,0.00,VWS V14.01,2013-09-16 16:44:00,
2013-09-16 12:49:00,76.5,67.6,30.15,ENE,66,2.0,3.0,74,0.00,,OVC055,0.00,VWS V14.01,2013-09-16 16:49:00,
2013-09-16 12:54:00,76.8,65.4,30.15,NNE,28,0.0,3.0,68,0.00,,OVC055,0.00,VWS V14.01,2013-09-16 16:54:00,
2013-09-16 12:59:00,77.0,64.8,30.15,NNE,28,0.0,1.0,66,0.00,,OVC055,0.00,VWS V14.01,2013-09-16 16:59:00,
2013-09-16 13:00:00,76.9,66.4,30.15,NNE,28,0.0,3.0,70,0.00,,OVC055,0.00,VWS V14.01,2013-09-16 17:00:00,
2013-09-16 13:04:00,76.7,65.8,30.14,NNE,28,0.0,1.0,69,0.00,,OVC055,0.00,VWS V14.01,2013-09-16 17:04:00,
2013-09-16 13:09:00,75.6,64.3,30.14,WNW,286,2.0,3.0,68,0.00,,OVC055,0.00,VWS V14.01,2013-09-16 17:09:00,
2013-09-16 13:14:00,75.9,65.8,30.14,NNE,24,2.0,3.0,71,0.00,,OVC055,0.00,VWS V14.01,2013-09-16 17:14:00,
2013-09-16 13:19:00,76.7,64.1,30.14,North,11,5.0,5.0,65,0.00,,OVC055,0.00,VWS V14.01,2013-09-16 17:19:00,
2013-09-16 13:24:00,77.0,66.5,30.14,North,5,0.0,5.0,70,0.00,,OVC055,0.00,VWS V14.01,2013-09-16 17:24:00,
2013-09-16 13:29:00,77.4,65.6,30.14,North,5,1.0,2.0,67,0.00,,OVC055,0.00,VWS V14.01,2013-09-16 17:29:00,
2013-09-16 13:30:00,77.3,65.5,30.14,North,5,1.0,5.0,67,0.00,,OVC055,0.00,VWS V14.01,2013-09-16 17:30:00,
2013-09-16 13:34:00,77.3,66.8,30.14,North,5,0.0,2.0,70,0.00,,OVC055,0.00,VWS V14.01,2013-09-16 17:34:00,
2013-09-16 13:39:00,77.3,66.8,30.13,NNE,12,3.0,3.0,70,0.00,,OVC055,0.00,VWS V14.01,2013-09-16 17:39:00,
2013-09-16 13:44:00,77.7,62.2,30.13,NNE,29,3.0,4.0,59,0.00,,OVC055,0.00,VWS V14.01,2013-09-16 17:44:00,
2013-09-16 13:49:00,77.7,62.2,30.13,NNE,18,0.0,5.0,59,0.00,,OVC055,0.00,VWS V14.01,2013-09-16 17:49:00,
2013-09-16 13:54:00,77.9,62.9,30.13,NNE,18,2.0,5.0,60,0.00,,OVC055,0.00,VWS V14.01,2013-09-16 17:54:00,
2013-09-16 13:59:00,78.3,63.3,30.13,NNE,13,2.0,2.0,60,0.00,,OVC055,0.00,VWS V14.01,2013-09-16 17:59:00,
2013-09-16 14:00:00,78.3,63.3,30.13,NNE,18,2.0,5.0,60,0.00,,OVC055,0.00,VWS V14.01,2013-09-16 18:00:00,
2013-09-16 14:04:00,78.9,65.7,30.13,NNE,13,0.0,3.0,64,0.00,,OVC055,0.00,VWS V14.01,2013-09-16 18:04:00,
2013-09-16 14:09:00,78.9,65.7,30.13,NNE,13,1.0,3.0,64,0.00,,OVC055,0.00,VWS V14.01,2013-09-16 18:09:00,
2013-09-16 14:14:00,79.1,66.8,30.13,NNE,13,0.0,3.0,66,0.00,,OVC055,0.00,VWS V14.01,2013-09-16 18:14:00,
2013-09-16 14:19:00,78.8,64.7,30.12,ENE,65,0.0,3.0,62,0.00,,OVC055,0.00,VWS V14.01,2013-09-16 18:19:00,
2013-09-16 14:24:00,78.4,63.8,30.12,South,170,0.0,4.0,61,0.00,,OVC055,0.00,VWS V14.01,2013-09-16 18:24:00,
2013-09-16 14:29:00,77.7,65.9,30.12,South,170,0.0,0.0,67,0.00,,OVC055,0.00,VWS V14.01,2013-09-16 18:29:00,
2013-09-16 14:30:00,77.8,65.1,30.12,South,170,0.0,4.0,65,0.00,,OVC055,0.00,VWS V14.01,2013-09-16 18:30:00,
2013-09-16 14:34:00,76.7,66.6,30.12,South,170,0.0,1.0,71,0.00,,OVC055,0.00,VWS V14.01,2013-09-16 18:34:00,
2013-09-16 14:39:00,76.4,65.9,30.11,NNW,329,0.0,4.0,70,0.00,,OVC055,0.00,VWS V14.01,2013-09-16 18:39:00,
2013-09-16 14:44:00,76.4,64.2,30.11,NNW,329,0.0,4.0,66,0.00,,OVC055,0.00,VWS V14.01,2013-09-16 18:44:00,
2013-09-16 14:49:00,76.3,66.2,30.11,NNW,329,0.0,4.0,71,0.00,,OVC055,0.00,VWS V14.01,2013-09-16 18:49:00,
2013-09-16 14:54:00,76.2,64.0,30.11,NNW,329,0.0,4.0,66,0.00,,OVC055,0.00,VWS V14.01,2013-09-16 18:54:00,
2013-09-16 14:59:00,76.6,64.8,30.11,North,11,1.0,2.0,67,0.00,,OVC055,0.00,VWS V14.01,2013-09-16 18:59:00,
2013-09-16 15:00:00,76.5,67.2,30.11,North,11,2.0,4.0,73,0.00,,OVC055,0.00,VWS V14.01,2013-09-16 19:00:00,
2013-09-16 15:04:00,77.8,66.4,30.10,NNE,14,0.0,3.0,68,0.00,,OVC055,0.00,VWS V14.01,2013-09-16 19:04:00,
2013-09-16 15:08:00,79.1,65.4,30.10,North,10,0.0,3.0,63,0.00,,OVC055,0.00,VWS V14.01,2013-09-16 19:08:00,
2013-09-16 15:13:00,79.9,66.7,30.10,North,10,1.0,3.0,64,0.00,,OVC055,0.00,VWS V14.01,2013-09-16 19:13:00,
2013-09-16 15:18:00,79.0,67.1,30.10,North,10,0.0,3.0,67,0.00,,OVC055,0.00,VWS V14.01,2013-09-16 19:18:00,
2013-09-16 15:23:00,78.8,67.8,30.10,North,10,0.0,3.0,69,0.00,,OVC055,0.00,VWS V14.01,2013-09-16 19:23:00,
2013-09-16 15:28:00,78.8,66.9,30.10,North,10,0.0,0.0,67,0.00,,OVC055,0.00,VWS V14.01,2013-09-16 19:28:00,
2013-09-16 15:30:00,78.8,66.9,30.10,North,10,0.0,3.0,67,0.00,,OVC055,0.00,VWS V14.01,2013-09-16 19:30:00,
2013-09-16 15:33:00,78.1,67.5,30.09,North,10,0.0,2.0,70,0.00,,OVC055,0.00,VWS V14.01,2013-09-16 19:33:00,
2013-09-16 15:38:00,78.1,64.9,30.09,North,10,3.0,3.0,64,0.00,,OVC055,0.00,VWS V14.01,2013-09-16 19:38:00,
2013-09-16 15:43:00,78.5,66.2,30.09,North,10,0.0,3.0,66,0.00,,OVC055,0.00,VWS V14.01,2013-09-16 19:43:00,
2013-09-16 15:48:00,78.2,67.2,30.09,North,10,0.0,3.0,69,0.00,,OVC055,0.00,VWS V14.01,2013-09-16 19:48:00,
2013-09-16 15:53:00,77.9,67.8,30.09,North,10,1.0,3.0,71,0.00,,OVC055,0.00,VWS V14.01,2013-09-16 19:53:00,
2013-09-16 15:58:00,77.8,65.5,30.09,NNE,32,1.0,3.0,66,0.00,,OVC055,0.00,VWS V14.01,2013-09-16 19:58:00,
2013-09-16 16:00:00,77.8,65.5,30.09,NNE,26,3.0,6.0,66,0.00,,OVC055,0.00,VWS V14.01,2013-09-16 20:00:00,
2013-09-16 16:03:00,77.5,65.7,30.08,NNE,20,3.0,5.0,67,0.00,,OVC055,0.00,VWS V14.01,2013-09-16 20:03:00,
2013-09-16 16:08:00,77.2,65.8,30.08,NNE,24,3.0,5.0,68,0.00,,OVC055,0.00,VWS V14.01,2013-09-16 20:08:00,
2013-09-16 16:13:00,77.1,66.2,30.08,NNE,24,2.0,5.0,69,0.00,,OVC055,0.00,VWS V14.01,2013-09-16 20:13:00,
2013-09-16 16:18:00,77.1,67.8,30.08,NNE,24,0.0,5.0,73,0.00,,OVC055,0.00,VWS V14.01,2013-09-16 20:18:00,
2013-09-16 16:23:00,76.7,68.6,30.08,NNE,24,0.0,5.0,76,0.00,,OVC055,0.00,VWS V14.01,2013-09-16 20:23:00,
2013-09-16 16:28:00,76.5,67.2,30.08,NNE,20,3.0,4.0,73,0.00,,OVC055,0.00,VWS V14.01,2013-09-16 20:28:00,
2013-09-16 16:30:00,76.5,67.2,30.08,NNE,26,4.0,5.0,73,0.00,,OVC055,0.00,VWS V14.01,2013-09-16 20:30:00,
2013-09-16 16:33:00,76.6,65.7,30.09,NNE,27,3.0,5.0,69,0.00,,OVC055,0.00,VWS V14.01,2013-09-16 20:33:00,
2013-09-16 16:38:00,76.6,66.1,30.09,NNE,31,2.0,6.0,70,0.00,,OVC055,0.00,VWS V14.01,2013-09-16 20:38:00,
2013-09-16 16:43:00,76.6,66.1,30.09,NNE,22,2.0,6.0,70,0.00,,OVC055,0.00,VWS V14.01,2013-09-16 20:43:00,
2013-09-16 16:48:00,76.6,66.9,30.09,NNE,24,2.0,6.0,72,0.00,,OVC055,0.00,VWS V14.01,2013-09-16 20:48:00,
2013-09-16 16:53:00,76.7,66.2,30.09,NNE,28,6.0,6.0,70,0.00,,OVC055,0.00,VWS V14.01,2013-09-16 20:53:00,
2013-09-16 16:58:00,76.4,65.9,30.09,NE,34,2.0,2.0,70,0.00,,OVC055,0.00,VWS V14.01,2013-09-16 20:58:00,
2013-09-16 17:00:00,76.4,65.9,30.09,NE,34,1.0,6.0,70,0.00,,OVC055,0.00,VWS V14.01,2013-09-16 21:00:00,
2013-09-16 17:03:00,76.3,67.0,30.09,NE,34,0.0,4.0,73,0.00,,OVC055,0.00,VWS V14.01,2013-09-16 21:03:00,
2013-09-16 17:08:00,76.1,67.2,30.09,NE,34,0.0,4.0,74,0.00,,OVC055,0.00,VWS V14.01,2013-09-16 21:08:00,
2013-09-16 17:13:00,75.8,66.1,30.09,NE,34,2.0,4.0,72,0.00,,OVC055,0.00,VWS V14.01,2013-09-16 21:13:00,
2013-09-16 17:18:00,75.7,66.8,30.09,NE,34,0.0,4.0,74,0.00,,OVC055,0.00,VWS V14.01,2013-09-16 21:18:00,
2013-09-16 17:23:00,75.5,67.0,30.09,NE,34,0.0,4.0,75,0.00,,OVC055,0.00,VWS V14.01,2013-09-16 21:23:00,
2013-09-16 17:28:00,75.4,67.3,30.09,NE,34,0.0,1.0,76,0.00,,OVC055,0.00,VWS V14.01,2013-09-16 21:28:00,
2013-09-16 17:30:00,75.4,67.3,30.09,NE,34,1.0,4.0,76,0.00,,OVC055,0.00,VWS V14.01,2013-09-16 21:30:00,
2013-09-16 17:33:00,75.2,66.7,30.09,NE,34,0.0,2.0,75,0.00,,OVC055,0.00,VWS V14.01,2013-09-16 21:33:00,
2013-09-16 17:38:00,74.7,66.3,30.09,NE,34,0.0,2.0,75,0.00,,OVC055,0.00,VWS V14.01,2013-09-16 21:38:00,
2013-09-16 17:43:00,74.2,65.0,30.09,SE,128,0.0,2.0,73,0.00,,OVC055,0.00,VWS V14.01,2013-09-16 21:43:00,
2013-09-16 17:48:00,74.1,64.1,30.09,NE,48,3.0,6.0,71,0.00,,OVC055,0.00,VWS V14.01,2013-09-16 21:48:00,
2013-09-16 17:53:00,74.3,64.3,30.10,NNE,21,2.0,6.0,71,0.00,,OVC055,0.00,VWS V14.01,2013-09-16 21:53:00,
2013-09-16 17:58:00,74.4,65.6,30.09,NE,48,0.0,0.0,74,0.00,,OVC055,0.00,VWS V14.01,2013-09-16 21:58:00,
2013-09-16 18:00:00,74.4,65.6,30.10,NE,48,0.0,6.0,74,0.00,,OVC055,0.00,VWS V14.01,2013-09-16 22:00:00,
2013-09-16 18:03:00,74.4,65.6,30.10,NE,51,0.0,4.0,74,0.00,,OVC055,0.00,VWS V14.01,2013-09-16 22:03:00,
2013-09-16 18:08:00,74.3,64.3,30.09,NE,49,2.0,4.0,71,0.00,,OVC055,0.00,VWS V14.01,2013-09-16 22:08:00,
2013-09-16 18:13:00,74.1,64.9,30.09,NE,49,1.0,4.0,73,0.00,,OVC055,0.00,VWS V14.01,2013-09-16 22:13:00,
2013-09-16 18:18:00,73.8,64.6,30.10,NNE,28,3.0,4.0,73,0.00,,OVC055,0.00,VWS V14.01,2013-09-16 22:18:00,
2013-09-16 18:23:00,73.6,64.8,30.10,NNE,28,0.0,4.0,74,0.00,,OVC055,0.00,VWS V14.01,2013-09-16 22:23:00,
2013-09-16 18:28:00,73.2,64.8,30.10,NNE,28,0.0,0.0,75,0.00,,OVC055,0.00,VWS V14.01,2013-09-16 22:28:00,
2013-09-16 18:30:00,73.3,64.9,30.10,NNE,28,0.0,4.0,75,0.00,,OVC055,0.00,VWS V14.01,2013-09-16 22:30:00,
2013-09-16 18:33:00,72.8,64.0,30.10,South,169,0.0,3.0,74,0.00,,OVC055,0.00,VWS V14.01,2013-09-16 22:33:00,
2013-09-16 18:38:00,72.2,64.6,30.10,South,169,0.0,3.0,77,0.00,,OVC055,0.00,VWS V14.01,2013-09-16 22:38:00,
2013-09-16 18:43:00,71.4,64.6,30.10,South,169,0.0,3.0,79,0.00,,OVC055,0.00,VWS V14.01,2013-09-16 22:43:00,
2013-09-16 18:48:00,70.8,64.7,30.10,South,169,0.0,3.0,81,0.00,,OVC055,0.00,VWS V14.01,2013-09-16 22:48:00,
2013-09-16 18:53:00,70.2,64.8,30.10,South,169,0.0,3.0,83,0.00,,OVC055,0.00,VWS V14.01,2013-09-16 22:53:00,
2013-09-16 18:58:00,70.0,64.6,30.10,South,169,0.0,3.0,83,0.00,,OVC055,0.00,VWS V14.01,2013-09-16 22:58:00,
2013-09-16 19:00:00,69.9,64.5,30.10,South,169,0.0,3.0,83,0.00,,OVC055,0.00,VWS V14.01,2013-09-16 23:00:00,
2013-09-16 19:03:00,69.7,64.7,30.10,South,169,0.0,0.0,84,0.00,,OVC055,0.00,VWS V14.01,2013-09-16 23:03:00,
2013-09-16 19:08:00,69.4,64.7,30.10,South,169,0.0,1.0,85,0.00,,OVC055,0.00,VWS V14.01,2013-09-16 23:08:00,
2013-09-16 19:13:00,69.2,64.5,30.10,South,169,0.0,1.0,85,0.00,,OVC055,0.00,VWS V14.01,2013-09-16 23:13:00,
2013-09-16 19:18:00,68.9,64.6,30.10,South,169,0.0,1.0,86,0.00,,OVC055,0.00,VWS V14.01,2013-09-16 23:18:00,
2013-09-16 19:23:00,68.6,64.6,30.10,South,169,0.0,1.0,87,0.00,,OVC055,0.00,VWS V14.01,2013-09-16 23:23:00,
2013-09-16 19:28:00,68.4,64.4,30.10,South,169,0.0,1.0,87,0.00,,OVC055,0.00,VWS V14.01,2013-09-16 23:28:00,
2013-09-16 19:30:00,68.4,64.4,30.10,South,169,0.0,1.0,87,0.00,,OVC055,0.00,VWS V14.01,2013-09-16 23:30:00,
2013-09-16 19:33:00,68.2,64.5,30.11,South,169,0.0,1.0,88,0.00,,OVC055,0.00,VWS V14.01,2013-09-16 23:33:00,
2013-09-16 19:38:00,68.0,64.3,30.11,South,169,0.0,1.0,88,0.00,,OVC055,0.00,VWS V14.01,2013-09-16 23:38:00,
2013-09-16 19:43:00,67.7,64.0,30.11,South,169,0.0,1.0,88,0.00,,OVC055,0.00,VWS V14.01,2013-09-16 23:43:00,
2013-09-16 19:48:00,67.5,63.8,30.11,South,169,0.0,1.0,88,0.00,,OVC055,0.00,VWS V14.01,2013-09-16 23:48:00,
2013-09-16 19:53:00,67.4,64.1,30.11,South,169,0.0,1.0,89,0.00,,OVC055,0.00,VWS V14.01,2013-09-16 23:53:00,
2013-09-16 19:58:00,67.3,64.0,30.11,South,169,0.0,1.0,89,0.00,,OVC055,0.00,VWS V14.01,2013-09-16 23:58:00,
2013-09-16 20:00:00,67.2,63.8,30.11,South,169,0.0,1.0,89,0.00,,OVC055,0.00,VWS V14.01,2013-09-17 00:00:00,
2013-09-16 20:03:00,67.0,63.7,30.11,South,169,0.0,0.0,89,0.00,,OVC055,0.00,VWS V14.01,2013-09-17 00:03:00,
2013-09-16 20:08:00,66.7,63.4,30.12,South,169,0.0,1.0,89,0.00,,OVC055,0.00,VWS V14.01,2013-09-17 00:08:00,
2013-09-16 20:13:00,66.5,63.2,30.12,South,169,0.0,1.0,89,0.00,,OVC055,0.00,VWS V14.01,2013-09-17 00:13:00,
2013-09-16 20:18:00,66.3,63.0,30.12,South,169,0.0,1.0,89,0.00,,OVC055,0.00,VWS V14.01,2013-09-17 00:18:00,
2013-09-16 20:23:00,66.1,63.1,30.12,South,169,0.0,1.0,90,0.00,,OVC055,0.00,VWS V14.01,2013-09-17 00:23:00,
2013-09-16 20:28:00,65.9,62.6,30.12,South,169,0.0,1.0,89,0.00,,OVC055,0.00,VWS V14.01,2013-09-17 00:28:00,
2013-09-16 20:30:00,65.9,62.6,30.12,South,169,0.0,1.0,89,0.00,,OVC055,0.00,VWS V14.01,2013-09-17 00:30:00,
2013-09-16 20:33:00,65.8,62.8,30.13,South,169,0.0,1.0,90,0.00,,OVC055,0.00,VWS V14.01,2013-09-17 00:33:00,
2013-09-16 20:38:00,65.8,62.8,30.13,South,169,0.0,1.0,90,0.00,,OVC055,0.00,VWS V14.01,2013-09-17 00:38:00,
2013-09-16 20:43:00,65.6,62.9,30.13,South,169,0.0,1.0,91,0.00,,OVC055,0.00,VWS V14.01,2013-09-17 00:43:00,
2013-09-16 20:48:00,65.4,62.7,30.13,South,169,0.0,1.0,91,0.00,,OVC055,0.00,VWS V14.01,2013-09-17 00:48:00,
2013-09-16 20:53:00,65.3,62.6,30.14,South,169,0.0,1.0,91,0.00,,OVC055,0.00,VWS V14.01,2013-09-17 00:53:00,
2013-09-16 20:58:00,65.2,62.8,30.14,South,169,0.0,1.0,92,0.00,,OVC055,0.00,VWS V14.01,2013-09-17 00:58:00,
2013-09-16 21:00:00,65.2,62.8,30.14,South,169,0.0,1.0,92,0.00,,OVC055,0.00,VWS V14.01,2013-09-17 01:00:00,
2013-09-16 21:03:00,65.1,62.7,30.14,South,169,0.0,0.0,92,0.00,,OVC055,0.00,VWS V14.01,2013-09-17 01:03:00,
2013-09-16 21:08:00,65.2,62.8,30.15,South,169,0.0,1.0,92,0.00,,OVC055,0.00,VWS V14.01,2013-09-17 01:08:00,
2013-09-16 21:13:00,65.3,63.2,30.15,South,169,0.0,1.0,93,0.00,,OVC055,0.00,VWS V14.01,2013-09-17 01:13:00,
2013-09-16 21:18:00,65.4,63.3,30.15,South,169,0.0,1.0,93,0.00,,OVC055,0.00,VWS V14.01,2013-09-17 01:18:00,
2013-09-16 21:23:00,65.4,63.3,30.15,South,169,0.0,1.0,93,0.00,,OVC055,0.00,VWS V14.01,2013-09-17 01:23:00,
2013-09-16 21:28:00,65.5,63.4,30.15,South,169,0.0,1.0,93,0.00,,OVC055,0.00,VWS V14.01,2013-09-17 01:28:00,
2013-09-16 21:30:00,65.5,63.4,30.15,South,169,0.0,1.0,93,0.00,,OVC055,0.00,VWS V14.01,2013-09-17 01:30:00,
2013-09-16 21:33:00,65.5,63.4,30.15,South,169,0.0,0.0,93,0.00,,OVC055,0.00,VWS V14.01,2013-09-17 01:33:00,
2013-09-16 21:38:00,65.3,63.2,30.15,South,169,0.0,1.0,93,0.00,,OVC055,0.00,VWS V14.01,2013-09-17 01:38:00,
2013-09-16 21:43:00,65.2,63.1,30.15,South,169,1.0,1.0,93,0.00,,OVC055,0.00,VWS V14.01,2013-09-17 01:43:00,
2013-09-16 21:47:00,65.1,63.0,30.15,South,169,0.0,1.0,93,0.00,,OVC055,0.00,VWS V14.01,2013-09-17 01:47:00,
2013-09-16 21:52:00,65.1,63.0,30.16,South,169,0.0,1.0,93,0.00,,OVC055,0.00,VWS V14.01,2013-09-17 01:52:00,
2013-09-16 21:57:00,65.1,63.3,30.16,South,169,0.0,1.0,94,0.00,,OVC055,0.00,VWS V14.01,2013-09-17 01:57:00,
2013-09-16 22:00:00,65.1,63.3,30.16,South,169,0.0,1.0,94,0.00,,OVC055,0.00,VWS V14.01,2013-09-17 02:00:00,
2013-09-16 22:02:00,65.1,63.3,30.16,South,169,0.0,0.0,94,0.00,,OVC055,0.00,VWS V14.01,2013-09-17 02:02:00,
2013-09-16 22:07:00,65.2,63.1,30.16,NW,323,0.0,2.0,93,0.00,,OVC055,0.00,VWS V14.01,2013-09-17 02:07:00,
2013-09-16 22:12:00,65.3,63.5,30.16,NW,323,0.0,2.0,94,0.00,,OVC055,0.00,VWS V14.01,2013-09-17 02:12:00,
2013-09-16 22:17:00,65.2,63.4,30.16,NW,323,0.0,2.0,94,0.00,,OVC055,0.00,VWS V14.01,2013-09-17 02:17:00,
2013-09-16 22:22:00,65.1,63.3,30.16,NW,323,0.0,2.0,94,0.00,,OVC055,0.00,VWS V14.01,2013-09-17 02:22:00,
2013-09-16 22:27:00,65.0,63.2,30.17,NW,323,0.0,2.0,94,0.00,,OVC055,0.00,VWS V14.01,2013-09-17 02:27:00,
2013-09-16 22:30:00,65.0,63.2,30.17,NW,323,0.0,2.0,94,0.00,,OVC055,0.00,VWS V14.01,2013-09-17 02:30:00,
2013-09-16 22:32:00,65.0,63.2,30.17,NW,323,0.0,1.0,94,0.00,,OVC055,0.00,VWS V14.01,2013-09-17 02:32:00,
2013-09-16 22:37:00,64.9,63.1,30.16,NW,323,0.0,1.0,94,0.00,,OVC055,0.00,VWS V14.01,2013-09-17 02:37:00,
2013-09-16 22:42:00,65.0,63.2,30.16,NW,323,0.0,1.0,94,0.00,,OVC055,0.00,VWS V14.01,2013-09-17 02:42:00,
2013-09-16 22:47:00,64.9,63.1,30.17,NW,323,0.0,1.0,94,0.00,,OVC055,0.00,VWS V14.01,2013-09-17 02:47:00,
2013-09-16 22:52:00,64.9,63.1,30.16,NW,323,0.0,1.0,94,0.00,,OVC055,0.00,VWS V14.01,2013-09-17 02:52:00,
2013-09-16 22:57:00,64.9,63.4,30.17,NW,323,0.0,1.0,95,0.00,,OVC055,0.00,VWS V14.01,2013-09-17 02:57:00,
2013-09-16 23:00:00,64.9,63.4,30.17,NW,323,0.0,1.0,95,0.00,,OVC055,0.00,VWS V14.01,2013-09-17 03:00:00,
2013-09-16 23:02:00,64.8,63.0,30.17,NW,323,0.0,0.0,94,0.00,,OVC055,0.00,VWS V14.01,2013-09-17 03:02:00,
2013-09-16 23:07:00,64.8,63.3,30.17,NW,323,0.0,0.0,95,0.00,,OVC055,0.00,VWS V14.01,2013-09-17 03:07:00,
2013-09-16 23:12:00,64.8,63.3,30.17,NW,323,0.0,0.0,95,0.00,,OVC055,0.00,VWS V14.01,2013-09-17 03:12:00,
2013-09-16 23:17:00,64.8,63.0,30.16,NW,323,0.0,1.0,94,0.00,,OVC055,0.00,VWS V14.01,2013-09-17 03:17:00,
2013-09-16 23:22:00,64.9,63.1,30.16,NW,323,0.0,1.0,94,0.00,,OVC055,0.00,VWS V14.01,2013-09-17 03:22:00,
2013-09-16 23:27:00,64.9,63.1,30.17,NW,323,0.0,1.0,94,0.00,,OVC055,0.00,VWS V14.01,2013-09-17 03:27:00,
2013-09-16 23:30:00,64.9,63.1,30.17,NW,323,0.0,1.0,94,0.00,,OVC055,0.00,VWS V14.01,2013-09-17 03:30:00,
2013-09-16 23:32:00,64.9,63.1,30.17,NW,323,0.0,1.0,94,0.00,,OVC055,0.00,VWS V14.01,2013-09-17 03:32:00,
2013-09-16 23:37:00,64.8,63.0,30.17,NW,323,0.0,1.0,94,0.00,,OVC055,0.00,VWS V14.01,2013-09-17 03:37:00,
2013-09-16 23:42:00,64.8,63.0,30.17,NW,323,0.0,1.0,94,0.00,,OVC055,0.00,VWS V14.01,2013-09-17 03:42:00,
2013-09-16 23:47:00,64.7,62.9,30.17,NW,323,0.0,1.0,94,0.00,,OVC055,0.00,VWS V14.01,2013-09-17 03:47:00,
2013-09-16 23:52:00,64.7,62.9,30.17,NW,323,0.0,1.0,94,0.00,,OVC055,0.00,VWS V14.01,2013-09-17 03:52:00,
2013-09-16 23:57:00,64.7,62.9,30.17,NW,323,0.0,1.0,94,0.00,,OVC055,0.00,VWS V14.01,2013-09-17 03:57:00,